Date,TemperatureHighF,TemperatureAvgF,TemperatureLowF,DewpointHighF,DewpointAvgF,DewpointLowF,HumidityHigh,HumidityAvg,HumidityLow,PressureMaxIn,PressureMinIn,WindSpeedMaxMPH,WindSpeedAvgMPH,GustSpeedMaxMPH,PrecipitationSumIn
2013-1-1,38,34,31,32,27,17,92,76,45,30.03,29.88,23,5,25,0.02
2013-1-2,35,29,23,26,17,10,79,60,42,30.12,29.91,19,6,21,0.00
2013-1-3,37,26,17,18,12,8,72,58,44,30.15,30.06,12,3,13,0.00
2013-1-4,32,27,24,17,15,13,66,60,54,30.21,30.12,22,9,24,0.00
2013-1-5,41,31,23,22,17,12,67,56,41,30.29,30.09,27,4,29,0.00
2013-1-6,38,36,33,27,22,20,72,58,51,30.12,30.00,25,5,27,0.00
2013-1-7,41,31,24,26,19,16,76,63,45,30.35,30.12,25,5,27,0.00
2013-1-8,49,30,18,28,19,12,85,67,39,30.35,30.27,9,2,10,0.00
2013-1-9,49,36,24,46,29,18,97,77,54,30.41,30.29,18,3,19,0.00
2013-1-10,47,38,30,35,30,25,92,74,53,30.50,30.35,6,1,7,0.00
2013-1-11,41,38,35,40,36,29,98,92,78,30.35,30.09,4,0,5,0.16
2013-1-12,69,49,36,57,45,35,98,89,57,30.15,30.06,11,1,12,0.01
2013-1-13,62,51,40,58,48,39,98,90,71,30.09,29.97,7,0,8,0.05
2013-1-14,57,49,40,56,45,38,98,85,71,30.24,30.00,23,3,25,0.66
2013-1-15,42,40,37,41,39,37,98,98,97,30.21,30.00,8,0,10,0.96
2013-1-16,44,39,36,43,37,35,98,94,80,30.00,29.85,14,2,16,0.29
2013-1-17,39,35,31,37,25,17,95,68,48,30.12,29.97,25,4,27,0.00
2013-1-18,42,31,23,20,13,6,63,48,29,30.35,30.12,31,7,34,0.01
2013-1-19,50,34,20,26,19,15,89,56,35,30.32,30.00,17,4,18,0.00
2013-1-20,47,38,29,26,17,7,55,42,34,30.03,29.94,29,8,32,0.00
2013-1-21,41,29,19,14,8,2,50,41,31,30.03,29.79,34,8,37,0.00
2013-1-22,19,12,7,2,-5,-9,52,46,38,30.12,29.91,25,9,27,0.00
2013-1-23,25,15,8,13,-2,-11,75,48,33,30.15,29.91,23,6,25,0.02
2013-1-24,21,15,5,15,1,-12,78,54,44,30.35,29.88,33,7,36,0.03
2013-1-25,28,14,4,24,3,-13,93,62,45,30.32,29.91,20,2,22,0.10
2013-1-26,28,25,22,20,15,12,73,66,58,30.29,29.97,20,8,22,0.00
2013-1-27,36,25,11,19,13,5,78,61,46,30.41,30.29,6,1,7,0.00
2013-1-28,47,39,31,47,36,18,98,88,57,30.29,30.09,7,0,8,0.04
2013-1-29,67,52,46,58,48,43,98,87,54,30.15,29.97,11,2,12,0.01
2013-1-30,64,53,42,58,51,41,98,94,76,29.97,29.35,20,3,22,2.23
2013-1-31,48,29,24,44,18,10,86,63,51,29.85,29.35,36,11,40,0.01
2013-2-1,26,14,4,24,2,-12,93,61,46,30.21,29.70,37,8,40,0.00
2013-2-2,26,14,2,22,4,-14,90,64,48,30.18,29.88,14,2,15,0.18
2013-2-3,31,26,21,22,15,7,89,66,53,29.94,29.76,26,8,28,0.03
2013-2-4,33,26,16,32,13,4,95,60,48,29.97,29.85,25,5,27,0.03
2013-2-5,41,37,33,32,30,27,95,77,60,29.88,29.79,18,5,20,0.00
2013-2-6,43,35,26,31,24,19,78,65,47,30.21,29.88,23,6,25,0.00
2013-2-7,41,33,25,30,26,20,87,77,57,30.24,30.03,9,1,10,0.00
2013-2-8,43,33,28,40,29,18,98,83,68,30.06,29.79,50,9,55,0.01
2013-2-9,44,29,21,20,13,8,67,50,35,30.27,30.06,36,6,40,0.00
2013-2-10,47,31,19,28,17,11,78,57,37,30.32,30.09,12,2,13,0.02
2013-2-11,59,43,34,50,30,16,98,68,28,30.09,29.82,26,4,28,0.04
2013-2-12,54,41,33,24,19,16,57,42,29,30.03,29.85,24,7,26,0.00
2013-2-13,38,34,31,33,25,16,94,71,45,29.91,29.59,23,3,25,0.17
2013-2-14,44,35,28,26,22,20,81,60,45,29.97,29.79,14,4,16,0.00
2013-2-15,48,30,25,33,25,21,93,82,54,30.00,29.94,11,2,12,0.01
2013-2-16,31,26,20,24,14,7,74,60,45,29.94,29.82,27,8,30,0.00
2013-2-17,23,16,10,13,2,-3,77,54,44,30.09,29.82,28,9,31,0.00
2013-2-18,47,28,10,23,10,-5,66,48,38,30.24,30.03,18,3,20,0.00
2013-2-19,44,34,29,37,24,10,96,68,42,30.03,29.73,28,6,31,0.15
2013-2-20,31,25,20,14,9,6,59,50,43,30.06,29.88,29,10,32,0.00
2013-2-21,45,28,14,19,10,3,63,49,34,30.15,30.03,26,5,28,0.00
2013-2-22,35,32,29,30,23,14,87,71,46,30.18,30.03,7,1,8,0.04
2013-2-23,59,42,32,41,33,29,98,76,37,30.03,29.79,12,2,13,0.00
2013-2-24,47,37,27,31,22,15,79,56,37,30.03,29.79,30,7,32,0.00
2013-2-25,46,31,21,23,16,12,73,53,38,30.09,30.00,7,2,10,0.00
2013-2-26,38,34,28,37,26,13,98,77,51,30.06,29.59,9,1,10,0.37
2013-2-27,41,38,34,37,30,26,98,75,56,29.70,29.56,19,5,21,0.05
2013-2-28,34,31,30,28,23,19,81,72,58,29.76,29.65,19,5,21,0.00
2013-3-1,33,30,27,26,20,15,80,65,55,29.85,29.73,21,8,23,0.00
2013-3-2,28,25,23,16,14,11,68,61,53,29.85,29.79,22,9,24,0.00
2013-3-3,24,22,21,13,10,7,64,59,53,29.91,29.82,24,8,26,0.00
2013-3-4,40,27,20,18,11,6,58,49,39,30.00,29.91,28,8,30,0.00
2013-3-5,42,35,26,34,26,13,97,69,52,30.00,29.59,7,1,8,0.38
2013-3-6,36,31,26,33,25,18,98,77,62,30.03,29.59,19,5,21,0.41
2013-3-7,36,32,30,27,23,19,85,69,53,30.15,30.03,28,10,30,0.00
2013-3-8,39,33,26,25,20,15,78,59,49,30.27,30.12,28,7,31,0.00
2013-3-9,56,36,20,29,22,15,85,60,32,30.29,30.18,7,2,8,0.00
2013-3-10,62,42,27,34,27,20,83,58,33,30.24,30.12,9,2,10,0.00
2013-3-11,54,45,35,49,35,26,91,67,50,30.15,29.82,16,2,18,0.02
2013-3-12,52,42,33,50,33,22,98,73,51,29.97,29.76,26,8,28,0.16
2013-3-13,39,32,23,28,20,12,81,62,45,30.06,29.91,30,8,32,0.00
2013-3-14,40,29,21,18,12,7,65,50,40,30.15,30.06,30,10,33,0.00
2013-3-15,56,42,29,32,21,9,53,44,37,30.09,29.82,19,6,21,0.00
2013-3-16,67,50,38,55,41,29,97,74,43,29.85,29.62,32,5,35,0.36
2013-3-17,49,42,37,39,36,33,95,78,66,30.06,29.85,14,2,16,0.06
2013-3-18,37,33,31,35,31,28,97,91,86,30.06,29.88,4,0,5,0.22
2013-3-19,51,42,34,28,17,6,69,37,24,29.97,29.79,37,14,40,0.00
2013-3-20,46,35,28,25,12,5,76,39,29,29.97,29.73,28,9,30,0.00
2013-3-21,30,22,17,20,8,1,68,54,43,29.88,29.73,29,10,32,0.00
2013-3-22,42,28,18,18,10,4,56,46,35,29.94,29.85,30,7,32,0.00
2013-3-23,51,34,20,22,14,7,70,46,31,29.97,29.88,18,3,19,0.00
2013-3-24,36,31,28,28,21,11,88,66,43,29.91,29.50,6,1,7,0.33
2013-3-25,37,31,29,27,23,17,92,74,50,29.70,29.47,27,5,29,0.21
2013-3-26,37,32,29,28,22,17,87,67,46,30.03,29.70,25,8,27,0.00
2013-3-27,37,31,28,24,21,17,74,66,52,30.12,30.03,27,7,29,0.00
2013-3-28,39,34,29,24,20,16,75,55,47,30.21,30.09,25,8,27,0.00
2013-3-29,53,40,32,26,22,20,66,48,34,30.21,30.12,21,5,22,0.00
2013-3-30,60,42,28,30,24,21,81,52,28,30.18,30.03,14,3,15,0.00
2013-3-31,51,43,37,50,37,22,98,80,50,30.03,29.76,14,3,16,0.30
2013-4-1,47,41,33,44,33,17,96,72,52,29.97,29.79,22,6,24,0.06
2013-4-2,45,35,27,20,14,9,53,42,31,30.09,29.97,22,8,24,0.00
2013-4-3,48,35,23,19,12,6,65,40,28,30.27,30.09,26,6,28,0.00
2013-4-4,46,33,24,29,17,6,85,53,32,30.27,29.97,11,2,12,0.27
2013-4-5,59,44,33,39,29,22,98,62,31,30.03,29.88,31,5,34,0.10
2013-4-6,67,47,27,29,24,20,79,44,23,30.18,30.03,14,3,15,0.00
2013-4-7,72,54,37,40,30,20,59,40,28,30.15,30.00,21,4,22,0.00
2013-4-8,74,54,41,45,37,33,78,56,32,30.12,30.03,18,2,19,0.00
2013-4-9,81,74,60,50,45,42,52,37,32,30.12,30.03,19,5,20,0.00
2013-4-10,87,70,52,54,46,40,68,45,24,30.09,29.91,20,5,22,0.00
2013-4-11,82,68,51,52,46,40,77,47,23,29.94,29.73,15,3,16,0.00
2013-4-12,71,61,46,60,48,30,97,65,29,29.88,29.65,23,6,25,0.80
2013-4-13,66,53,43,35,30,22,60,42,26,30.00,29.85,28,8,31,0.00
2013-4-14,73,58,38,40,31,23,69,38,24,30.09,30.00,19,3,21,0.00
2013-4-15,64,54,50,52,48,34,94,80,33,30.21,30.03,12,1,13,0.48
2013-4-16,80,64,54,57,53,50,96,70,37,30.27,30.12,25,3,27,0.09
2013-4-17,77,65,57,63,56,49,98,75,43,30.24,30.12,9,2,10,0.09
2013-4-18,77,66,58,62,54,48,92,67,47,30.15,29.97,18,3,20,0.00
2013-4-19,68,59,44,61,51,31,98,75,56,29.97,29.67,30,6,33,0.49
2013-4-20,56,44,35,34,24,19,70,47,33,30.27,29.88,27,9,30,0.00
2013-4-21,63,45,31,33,25,19,77,47,27,30.41,30.27,12,3,13,0.00
2013-4-22,66,49,33,31,24,18,74,41,21,30.41,30.24,12,2,13,0.00
2013-4-23,73,53,34,41,31,22,78,46,26,30.27,30.03,14,3,15,0.00
2013-4-24,75,57,43,52,43,34,90,61,34,30.12,29.88,34,6,37,0.02
2013-4-25,64,47,35,35,27,21,73,48,25,30.29,30.12,24,6,26,0.00
2013-4-26,69,51,32,35,28,21,78,44,26,30.38,30.27,14,3,16,0.00
2013-4-27,71,55,42,40,34,24,69,46,28,30.32,30.21,16,3,18,0.00
2013-4-28,56,52,50,50,46,38,98,80,52,30.21,30.06,14,2,15,0.37
2013-4-29,69,56,49,55,50,48,98,83,50,30.06,29.97,10,2,10,0.01
2013-4-30,78,67,55,56,50,47,85,56,39,30.21,30.03,10,3,10,0.00
2013-5-1,75,63,55,52,44,33,86,54,32,30.32,30.21,12,2,13,0.00
2013-5-2,78,64,54,46,39,32,52,41,31,30.32,30.21,12,3,14,0.00
2013-5-3,71,57,42,44,38,34,86,51,30,30.27,30.18,12,2,13,0.00
2013-5-4,68,55,42,40,35,29,72,48,26,30.21,30.06,14,3,15,0.00
2013-5-5,70,56,44,42,34,25,67,46,23,30.12,30.00,14,3,15,0.00
2013-5-6,62,54,50,54,49,42,98,83,59,30.06,29.94,14,2,15,1.29
2013-5-7,60,54,50,58,52,46,98,96,71,29.97,29.91,14,1,15,0.81
2013-5-8,64,54,50,53,50,44,98,88,52,30.03,29.91,9,1,10,0.70
2013-5-9,75,60,48,58,48,43,98,71,38,30.09,29.97,24,4,26,0.01
2013-5-10,79,61,49,62,53,46,98,78,37,30.09,29.94,19,3,20,0.24
2013-5-11,72,62,56,61,55,46,98,79,45,29.94,29.82,22,4,24,0.17
2013-5-12,56,49,40,46,32,25,80,53,37,30.06,29.85,24,8,26,0.00
2013-5-13,55,43,35,34,28,24,78,58,37,30.15,30.00,26,5,28,0.00
2013-5-14,68,49,30,42,32,28,98,60,26,30.18,30.00,16,2,17,0.01
2013-5-15,87,68,48,55,46,34,80,49,26,30.03,29.91,24,6,26,0.00
2013-5-16,78,68,58,62,51,42,96,58,36,30.06,29.94,33,4,36,0.13
2013-5-17,75,63,55,63,58,54,98,86,54,30.15,30.06,9,1,10,0.07
2013-5-18,74,65,60,65,60,58,98,86,61,30.18,30.09,12,1,13,0.00
2013-5-19,67,64,62,65,62,60,98,94,85,30.15,30.09,9,1,10,0.04
2013-5-20,78,68,60,66,63,60,98,85,62,30.12,30.06,11,2,12,0.01
2013-5-21,86,72,62,68,61,57,98,74,39,30.09,29.94,11,2,12,0.01
2013-5-22,84,68,58,65,60,52,98,80,36,30.03,29.94,16,2,17,0.11
2013-5-23,80,67,62,64,58,49,98,77,37,29.97,29.85,28,3,31,0.03
2013-5-24,62,51,45,52,38,29,81,62,43,30.21,29.88,31,8,34,0.00
2013-5-25,62,49,36,33,29,23,76,49,29,30.24,30.18,32,6,35,0.00
2013-5-26,70,54,38,40,32,26,90,49,23,30.24,30.18,20,4,22,0.00
2013-5-27,71,55,38,49,40,29,85,59,42,30.29,30.15,9,2,10,0.00
2013-5-28,81,67,51,58,52,47,97,63,34,30.21,30.12,14,2,15,0.00
2013-5-29,86,68,57,65,56,52,98,69,33,30.24,30.15,16,3,17,0.00
2013-5-30,89,81,69,62,55,49,67,42,30,30.27,30.18,3,0,4,0.00
2013-5-31,88,72,57,63,56,49,95,62,33,30.24,30.09,12,0,13,0.00
2013-6-1,89,73,62,63,58,54,95,63,32,30.15,30.00,14,3,16,0.00
2013-6-2,76,70,63,65,61,57,98,75,58,30.03,29.91,16,3,17,0.41
2013-6-3,74,66,60,65,58,52,98,77,50,30.06,29.91,16,3,18,0.01
2013-6-4,80,65,52,61,52,47,98,68,34,30.15,30.03,11,2,12,0.00
2013-6-5,77,66,57,60,55,46,82,68,54,30.18,30.03,11,2,12,0.00
2013-6-6,68,65,62,67,62,56,98,91,73,30.09,29.88,7,0,8,0.58
2013-6-7,70,66,62,69,63,55,98,92,75,29.88,29.73,17,2,18,0.78
2013-6-8,80,66,58,60,55,50,98,71,39,30.15,29.88,14,2,15,0.00
2013-6-9,86,70,57,64,57,49,98,70,30,30.21,30.09,12,2,13,0.19
2013-6-10,73,68,63,71,64,57,98,88,60,30.12,29.91,21,2,23,0.62
2013-6-11,76,67,61,63,60,56,98,80,54,30.03,29.91,17,4,18,0.15
2013-6-12,86,74,64,69,65,60,93,74,48,30.03,29.94,18,4,20,0.00
2013-6-13,74,67,62,70,63,50,98,85,63,29.94,29.70,31,5,34,0.87
2013-6-14,74,64,58,54,51,48,83,64,44,30.09,29.85,20,6,22,0.01
2013-6-15,80,65,52,61,52,48,98,68,34,30.18,30.09,14,2,16,0.00
2013-6-16,80,67,56,66,60,53,98,79,53,30.12,30.03,14,3,16,0.08
2013-6-17,86,72,64,67,62,57,98,75,40,30.06,29.97,14,2,16,0.00
2013-6-18,70,67,62,68,64,61,98,92,74,30.00,29.91,7,0,8,1.64
2013-6-19,83,67,57,66,58,50,98,77,33,30.18,30.00,11,1,12,0.01
2013-6-20,84,72,64,65,60,52,98,70,36,30.27,30.18,11,2,12,0.00
2013-6-21,86,74,65,64,61,57,94,68,39,30.29,30.24,10,2,10,0.00
2013-6-22,86,72,60,63,58,52,98,66,37,30.29,30.18,11,2,12,0.00
2013-6-23,87,73,63,66,60,54,96,67,34,30.27,30.15,14,2,15,0.00
2013-6-24,83,70,63,70,64,59,97,81,49,30.27,30.12,14,2,15,0.39
2013-6-25,88,73,64,72,65,59,98,79,41,30.18,30.03,11,2,12,0.00
2013-6-26,84,74,67,72,65,58,98,76,46,30.09,29.97,18,3,20,0.00
2013-6-27,76,70,66,68,65,62,98,86,67,29.97,29.79,12,3,13,0.03
2013-6-28,85,74,65,71,61,50,98,69,33,29.82,29.65,24,6,26,0.21
2013-6-29,82,69,58,64,59,54,98,72,43,29.79,29.67,12,2,13,0.01
2013-6-30,87,72,60,66,60,53,98,70,33,29.94,29.79,10,2,10,0.00
2013-7-1,80,71,65,68,64,59,98,80,60,30.03,29.91,12,1,13,0.15
2013-7-2,78,71,67,70,67,63,98,87,61,30.18,30.03,11,1,12,0.22
2013-7-3,76,70,68,70,68,66,98,92,76,30.29,30.18,10,1,10,0.31
2013-7-4,83,73,67,72,67,63,98,82,56,30.29,30.21,12,2,13,0.03
2013-7-5,80,73,68,74,69,65,98,86,68,30.29,30.21,11,2,12,0.29
2013-7-6,85,74,65,71,66,61,98,79,49,30.27,30.15,12,2,14,0.00
2013-7-7,79,70,66,70,67,61,98,91,63,30.21,30.12,16,2,17,0.37
2013-7-8,81,71,64,70,63,57,98,79,48,30.24,30.15,14,2,15,0.03
2013-7-9,86,74,66,71,66,62,98,80,48,30.21,30.12,12,2,13,0.00
2013-7-10,79,72,69,73,70,66,98,93,73,30.15,30.03,16,1,18,0.60
2013-7-11,78,72,67,72,69,64,98,91,66,30.03,29.97,12,1,13,0.24
2013-7-12,75,68,64,67,63,60,98,84,60,30.12,30.00,10,1,11,0.00
2013-7-13,76,70,64,69,65,60,98,84,67,30.27,30.12,9,1,10,0.01
2013-7-14,85,74,69,69,65,61,98,76,48,30.38,30.27,15,2,16,0.00
2013-7-15,89,75,65,71,66,63,98,76,46,30.41,30.32,8,1,9,0.00
2013-7-16,91,75,67,73,68,63,98,83,42,30.38,30.29,23,1,25,1.06
2013-7-17,86,75,69,76,71,67,98,88,58,30.35,30.24,7,1,8,0.31
2013-7-18,88,75,69,77,71,67,98,87,56,30.29,30.18,10,1,10,0.00
2013-7-19,86,74,69,77,70,64,98,90,57,30.18,30.06,14,1,15,0.02
2013-7-20,88,76,67,73,68,63,98,78,46,30.06,29.97,16,3,18,0.00
2013-7-21,83,72,67,73,69,65,98,91,60,30.09,30.00,14,1,15,0.71
2013-7-22,83,74,69,73,69,64,98,86,55,30.06,29.88,12,2,13,0.20
2013-7-23,83,74,68,70,65,60,98,77,50,29.91,29.85,18,4,20,0.01
2013-7-24,83,72,66,69,62,55,98,74,42,30.00,29.85,16,3,17,0.00
2013-7-25,80,68,60,60,56,50,93,67,41,30.12,29.97,14,2,15,0.00
2013-7-26,82,68,55,61,55,49,98,68,33,30.18,30.09,12,2,13,0.00
2013-7-27,71,67,64,68,64,58,98,92,75,30.09,29.97,9,1,10,1.74
2013-7-28,78,68,62,66,60,54,98,79,48,30.09,29.97,12,2,13,0.03
2013-7-29,74,63,52,59,52,47,98,72,42,30.27,30.09,12,2,14,0.00
2013-7-30,81,66,54,62,56,50,98,73,42,30.29,30.21,11,2,12,0.00
2013-7-31,68,64,62,66,62,58,98,92,78,30.21,30.06,7,0,8,0.48
2013-8-1,79,69,63,68,63,59,98,82,54,30.06,29.94,12,2,13,0.10
2013-8-2,80,68,60,66,58,52,98,73,39,30.12,30.00,14,2,16,0.00
2013-8-3,78,68,60,66,60,55,98,79,49,30.09,30.03,12,2,15,0.00
2013-8-4,76,67,59,64,56,49,98,71,42,30.12,30.03,16,3,18,0.00
2013-8-5,78,64,53,59,54,50,98,72,42,30.18,30.06,12,2,13,0.00
2013-8-6,82,70,62,67,61,57,98,75,46,30.09,30.03,13,1,14,0.04
2013-8-7,79,71,68,71,68,64,98,90,69,30.12,30.06,12,1,13,0.35
2013-8-8,77,72,68,74,70,68,98,95,81,30.12,30.06,8,1,9,0.79
2013-8-9,84,75,70,74,69,64,98,84,54,30.12,30.03,14,3,15,0.06
2013-8-10,83,73,69,71,68,59,98,85,47,30.18,30.09,11,1,12,0.32
2013-8-11,76,71,68,74,69,66,98,96,82,30.18,30.12,5,0,6,0.30
2013-8-12,84,72,65,71,66,57,98,83,40,30.15,30.03,9,1,10,0.01
2013-8-13,80,71,65,70,66,58,98,86,53,30.03,29.91,14,2,15,0.04
2013-8-14,71,62,54,64,49,43,96,65,43,30.18,29.97,14,3,16,0.00
2013-8-15,74,59,48,56,49,44,98,73,42,30.21,30.12,8,1,10,0.00
2013-8-16,77,62,51,59,52,48,98,75,42,30.24,30.15,9,1,10,0.00
2013-8-17,73,63,55,61,56,53,98,81,53,30.27,30.21,7,1,8,0.00
2013-8-18,72,65,61,67,62,58,98,91,76,30.27,30.21,7,1,8,0.15
2013-8-19,80,69,64,71,64,59,98,87,54,30.24,30.12,9,1,10,0.10
2013-8-20,85,70,60,67,62,58,98,80,42,30.24,30.18,8,1,9,0.01
2013-8-21,80,69,64,71,66,60,98,91,61,30.27,30.18,14,1,15,0.76
2013-8-22,80,69,61,69,63,60,98,83,54,30.21,30.09,12,2,13,0.00
2013-8-23,79,69,62,70,63,59,98,84,53,30.21,30.06,12,1,14,0.03
2013-8-24,80,66,56,62,57,52,98,77,40,30.35,30.21,8,1,9,0.00
2013-8-25,79,65,56,63,56,51,98,74,38,30.44,30.32,9,1,10,0.00
2013-8-26,83,66,55,63,57,52,98,75,40,30.35,30.15,9,2,10,0.00
2013-8-27,82,72,62,68,64,59,98,76,53,30.18,30.06,14,3,15,0.00
2013-8-28,84,73,69,74,69,63,98,87,52,30.09,29.94,16,2,18,1.42
2013-8-29,87,76,70,74,68,62,98,80,45,30.12,29.94,8,1,9,0.02
2013-8-30,85,76,66,70,66,63,98,73,50,30.12,30.00,12,2,13,0.00
2013-8-31,82,74,67,72,68,65,98,83,60,30.00,29.94,9,2,10,0.16
2013-9-1,76,70,65,71,68,65,98,93,78,29.97,29.88,8,1,9,0.01
2013-9-2,85,73,66,72,65,60,98,79,45,29.94,29.88,12,2,14,0.00
2013-9-3,79,70,61,70,61,52,98,77,43,30.09,29.91,14,3,16,0.17
2013-9-4,81,65,56,60,56,53,98,77,43,30.18,30.09,11,2,12,0.00
2013-9-5,78,64,52,64,56,52,98,78,46,30.21,30.15,16,3,18,0.00
2013-9-6,79,65,57,60,56,51,98,74,40,30.27,30.15,7,1,8,0.00
2013-9-7,82,65,55,63,54,48,98,73,32,30.18,30.06,11,2,12,0.00
2013-9-8,83,67,56,66,59,52,98,76,46,30.12,30.00,14,2,15,0.00
2013-9-9,80,69,62,68,64,61,98,86,59,30.21,30.12,7,1,8,0.00
2013-9-10,88,74,65,70,67,63,98,81,45,30.27,30.21,10,1,10,0.00
2013-9-11,83,72,67,74,67,64,98,87,60,30.27,30.15,10,1,10,0.00
2013-9-12,84,70,65,74,65,56,98,85,46,30.15,29.91,28,2,31,0.01
2013-9-13,71,63,56,62,51,41,98,68,37,30.03,29.85,18,5,20,0.06
2013-9-14,72,57,45,48,44,40,90,63,37,30.18,30.00,9,2,10,0.00
2013-9-15,74,58,46,56,50,41,98,77,45,30.24,30.15,12,2,13,0.00
2013-9-16,66,58,51,62,53,47,98,84,62,30.29,30.15,14,1,16,0.00
2013-9-17,72,56,47,53,48,44,98,77,42,30.35,30.27,10,1,11,0.00
2013-9-18,67,56,45,60,51,42,98,82,59,30.29,30.18,9,1,10,0.01
2013-9-19,76,65,59,65,61,58,98,89,61,30.21,30.12,10,1,10,0.04
2013-9-20,74,68,64,70,66,64,98,94,72,30.12,30.00,7,0,8,0.23
2013-9-21,68,64,60,67,63,57,98,95,85,30.00,29.76,18,1,20,0.51
2013-9-22,55,55,54,50,50,49,84,83,81,30.00,30.00,4,0,4,0.13
2013-9-23,74,56,45,52,47,42,98,75,36,30.09,30.00,9,1,10,0.13
2013-9-24,77,63,50,56,52,48,98,72,39,30.12,29.97,10,2,10,0.13
2013-9-25,68,60,53,60,55,50,98,84,59,30.03,29.94,7,1,8,0.13
2013-9-26,77,63,53,59,54,48,98,75,41,30.12,29.97,12,1,13,0.13
2013-9-27,75,59,48,56,50,44,98,76,42,30.24,30.12,7,1,8,0.13
2013-9-28,68,60,52,57,52,46,97,77,51,30.29,30.21,6,0,7,0.13
2013-9-29,71,59,49,55,51,47,98,77,47,30.24,30.06,8,1,9,0.13
2013-9-30,69,59,51,58,54,49,98,84,59,30.12,30.06,7,1,8,0.00
2013-10-1,78,63,56,63,55,48,98,79,38,30.18,30.09,12,2,14,0.00
2013-10-2,80,62,51,64,53,48,98,76,38,30.21,30.12,10,2,10,0.00
2013-10-3,78,62,53,60,55,50,98,80,46,30.21,30.09,8,1,9,0.00
2013-10-4,85,66,55,65,58,53,98,80,39,30.21,30.12,10,1,10,0.00
2013-10-5,83,67,59,67,58,54,98,77,39,30.21,30.09,10,1,10,0.00
2013-10-6,81,67,57,67,58,54,98,77,44,30.12,29.94,16,2,17,0.00
2013-10-7,67,59,47,64,50,39,98,75,50,30.12,29.82,17,3,18,0.95
2013-10-8,70,52,39,48,41,36,98,70,35,30.27,30.12,6,0,6,0.00
2013-10-9,67,51,39,49,39,36,98,69,36,30.29,30.21,0,0,0,0.00
2013-10-10,70,58,49,60,53,40,98,82,63,30.21,30.03,0,0,0,0.03
2013-10-11,68,61,58,59,55,52,98,83,62,30.06,30.00,12,1,14,0.00
2013-10-12,72,62,57,63,58,54,98,87,65,30.18,30.03,7,0,8,0.03
2013-10-13,68,62,57,60,57,54,98,83,65,30.27,30.15,6,0,6,0.01
2013-10-14,72,62,58,60,57,54,98,83,53,30.29,30.18,8,1,9,0.09
2013-10-15,69,59,52,54,50,44,98,76,44,30.27,30.12,7,1,8,0.01
2013-10-16,68,57,47,55,50,46,98,79,57,30.12,29.97,9,1,10,0.00
2013-10-17,63,58,49,62,55,38,98,89,67,30.00,29.82,16,2,18,0.53
2013-10-18,66,52,43,39,36,33,75,55,32,30.06,29.97,17,3,18,0.01
2013-10-19,58,46,39,46,39,32,91,77,46,30.00,29.85,14,2,15,0.00
2013-10-20,60,45,37,34,30,27,71,55,35,30.09,29.97,14,3,16,0.00
2013-10-21,65,46,29,38,32,24,96,61,33,30.15,29.97,12,2,13,0.00
2013-10-22,55,44,36,47,36,30,98,74,52,29.97,29.85,14,2,15,0.01
2013-10-23,46,36,30,41,31,23,98,83,63,29.97,29.73,20,3,22,0.05
2013-10-24,42,34,29,28,24,21,79,67,48,30.12,29.94,14,4,15,0.01
2013-10-25,42,34,25,25,20,18,79,59,44,30.29,30.12,17,4,18,0.00
2013-10-26,52,40,21,29,22,17,96,53,33,30.29,29.97,18,4,20,0.00
2013-10-27,58,46,37,32,28,23,69,51,37,30.12,30.00,19,4,21,0.00
2013-10-28,58,43,29,42,34,24,92,73,48,30.27,30.12,12,1,13,0.00
2013-10-29,64,50,40,47,42,37,98,76,46,30.32,30.24,12,2,13,0.00
2013-10-30,56,52,49,55,50,43,98,91,74,30.27,30.18,4,0,5,0.15
2013-10-31,63,56,52,59,53,49,98,90,63,30.21,29.76,14,1,16,0.13
2013-11-1,70,62,54,60,48,35,93,63,35,29.79,29.65,19,5,21,0.36
2013-11-2,59,49,43,41,35,29,86,60,38,29.97,29.76,17,4,18,0.00
2013-11-3,52,43,31,37,30,25,82,61,41,30.35,29.97,17,4,18,0.00
2013-11-4,46,34,26,29,25,22,88,71,44,30.47,30.32,6,0,7,0.00
2013-11-5,55,43,31,42,30,24,84,64,32,30.50,30.38,9,1,10,0.00
2013-11-6,67,53,47,50,45,41,93,75,44,30.38,30.09,14,1,15,0.00
2013-11-7,51,44,34,50,36,19,98,73,52,30.12,29.94,24,5,26,0.14
2013-11-8,44,35,26,22,19,16,72,52,40,30.27,30.12,28,5,31,0.00
2013-11-9,54,38,24,28,21,16,81,55,31,30.27,30.09,14,3,16,0.00
2013-11-10,53,44,32,29,23,17,57,44,36,30.27,30.06,26,7,28,0.00
2013-11-11,57,40,28,27,21,17,74,49,28,30.27,30.03,12,2,13,0.00
2013-11-12,50,34,24,29,17,7,62,49,32,30.35,30.00,22,7,24,0.00
2013-11-13,36,26,21,14,9,7,61,49,39,30.41,30.35,16,5,18,0.00
2013-11-14,51,31,16,24,14,8,75,52,30,30.35,30.24,12,2,14,0.00
2013-11-15,56,38,20,36,21,9,78,53,28,30.27,30.12,14,1,15,0.09
2013-11-16,59,48,40,49,42,35,96,80,61,30.24,30.15,9,1,10,0.00
2013-11-17,63,54,49,55,49,45,98,84,63,30.18,29.79,11,1,12,0.31
2013-11-18,56,48,38,56,29,19,98,49,33,30.00,29.79,27,8,30,0.02
2013-11-19,42,34,27,21,18,16,65,52,41,30.27,30.00,28,5,30,0.00
2013-11-20,47,33,26,20,16,12,69,51,30,30.38,30.27,11,1,12,0.00
2013-11-21,47,37,28,35,27,15,81,65,57,30.41,30.32,5,0,6,0.00
2013-11-22,54,47,40,53,44,34,98,87,77,30.32,30.09,16,1,18,0.02
2013-11-23,47,36,21,41,23,5,81,59,45,30.18,30.09,31,8,34,0.00
2013-11-24,23,17,12,7,0,-4,55,46,39,30.38,30.18,25,7,27,0.00
2013-11-25,37,23,11,18,5,-2,64,47,32,30.38,30.21,12,2,13,0.00
2013-11-26,38,32,28,37,28,17,98,86,62,30.24,29.65,8,0,9,2.50
2013-11-27,39,27,18,39,17,4,98,65,53,30.06,29.62,30,9,33,0.00
2013-11-28,32,23,17,14,9,4,71,54,44,30.32,30.06,31,5,34,0.00
2013-11-29,40,29,20,20,14,9,70,53,41,30.50,30.32,12,2,13,0.00
2013-11-30,37,25,16,20,14,9,77,63,47,30.50,30.24,7,1,8,0.00
2013-12-1,46,30,16,27,19,9,80,64,46,30.24,29.97,10,1,10,0.00
2013-12-2,48,39,33,33,29,25,81,67,52,29.97,29.79,9,1,10,0.00
2013-12-3,50,39,31,37,32,27,93,77,59,29.94,29.82,7,1,8,0.00
2013-12-4,60,46,37,45,39,32,89,76,56,30.03,29.94,9,1,10,0.00
2013-12-5,58,47,38,52,45,36,98,92,77,30.06,29.94,6,0,7,0.04
2013-12-6,53,48,40,52,47,38,98,97,89,30.06,29.88,17,0,18,1.58
2013-12-7,39,33,25,38,26,18,94,75,61,30.38,30.06,12,2,13,0.00
2013-12-8,31,28,25,31,24,19,98,84,74,30.38,30.12,5,1,6,0.93
2013-12-9,42,34,30,41,31,24,98,91,67,30.12,30.00,14,2,16,0.30
2013-12-10,33,28,22,31,20,7,98,72,51,30.18,29.91,22,5,24,0.34
2013-12-11,35,26,17,17,11,6,63,52,40,30.27,30.15,19,5,20,0.00
2013-12-12,27,20,14,12,3,-1,54,47,39,30.29,30.18,18,5,19,0.00
2013-12-13,36,26,20,15,7,1,64,44,39,30.21,30.12,16,4,18,0.00
2013-12-14,33,30,26,30,24,14,94,80,59,30.21,29.67,6,0,6,0.72
2013-12-15,36,30,26,35,22,15,98,73,59,29.94,29.67,20,5,22,0.07
2013-12-16,36,29,25,24,20,15,78,68,58,30.03,29.94,18,4,20,0.00
2013-12-17,38,31,26,31,26,16,92,81,62,30.00,29.88,14,2,16,0.10
2013-12-18,32,26,19,21,13,10,80,59,48,30.15,29.97,18,5,20,0.00
2013-12-19,50,30,14,27,17,8,80,62,38,30.18,30.09,14,1,15,0.00
2013-12-20,47,36,27,29,25,22,86,68,47,30.09,30.00,7,1,8,0.00
2013-12-21,61,45,34,56,38,28,95,77,63,30.03,29.88,17,1,18,0.00
2013-12-22,63,55,49,56,52,48,98,91,75,30.03,29.88,19,3,21,0.70
2013-12-23,51,41,26,50,36,17,98,81,61,30.18,29.91,22,4,24,0.42
2013-12-24,29,22,12,17,10,-1,71,58,47,30.32,30.12,20,6,22,0.00
2013-12-25,32,19,8,11,4,-4,70,51,38,30.35,30.18,12,1,13,0.00
2013-12-26,36,26,17,18,12,6,71,54,40,30.27,30.12,22,3,24,0.00
2013-12-27,44,28,16,20,13,9,74,55,34,30.32,30.24,14,2,16,0.00
2013-12-28,46,31,18,24,17,10,77,58,38,30.29,30.09,10,1,10,0.00
2013-12-29,43,36,32,42,33,23,98,87,66,30.09,29.65,22,3,24,1.73
2013-12-30,38,32,27,31,22,16,81,66,59,30.06,29.85,17,5,18,0.00
2013-12-31,30,26,22,18,12,9,65,55,46,30.24,30.00,20,6,22,0.00
2014-1-1,45,28,17,24,15,9,78,59,37,30.27,30.03,11,1,12,0.00
2014-1-2,33,27,18,30,20,5,91,76,56,30.03,29.59,19,2,21,0.16